Time;durP1;ratioP1;P1;durP2;ratioP2;P2;SDS_P1;SDS_P2;PMS_P1;PMS_P2;Temp;Humidity;BMP_temperature;BMP_pressure;BME280_temperature;BME280_humidity;BME280_pressure;Samples;Min_cycle;Max_cycle;Signal;HPM_P1;HPM_P2
2022/09/21 00:01:19;;;;;;;9.35;3.55;;;;;;;10.10;100.00;102442.09;5138734;27;20378;-83
2022/09/21 00:03:45;;;;;;;9.02;3.42;;;;;;;10.00;100.00;102439.56;5157030;27;20415;-84
2022/09/21 00:06:17;;;;;;;8.52;3.65;;;;;;;9.94;100.00;102444.84;5138332;27;20477;-83
2022/09/21 00:08:44;;;;;;;5.70;3.10;;;;;;;9.86;100.00;102442.97;5138132;27;20022;-84
2022/09/21 00:11:19;;;;;;;5.22;3.40;;;;;;;9.80;100.00;102449.94;5156545;27;20022;-84
2022/09/21 00:13:45;;;;;;;7.70;3.53;;;;;;;9.75;100.00;102452.31;5138414;27;20038;-84
2022/09/21 00:16:12;;;;;;;7.97;3.53;;;;;;;9.69;100.00;102449.44;5137732;27;20115;-84
2022/09/21 00:18:38;;;;;;;7.18;3.60;;;;;;;9.62;100.00;102447.41;5138255;27;20034;-84
2022/09/21 00:21:08;;;;;;;6.00;3.70;;;;;;;9.57;100.00;102455.22;5138026;27;20030;-84
2022/09/21 00:23:35;;;;;;;7.43;3.80;;;;;;;9.54;100.00;102454.72;5138004;27;20065;-84
2022/09/21 00:26:09;;;;;;;7.72;4.22;;;;;;;9.49;100.00;102460.59;5120592;27;20113;-84
2022/09/21 00:28:35;;;;;;;5.70;3.65;;;;;;;9.42;100.00;102457.75;5156082;27;20034;-83
2022/09/21 00:31:06;;;;;;;6.47;3.80;;;;;;;9.40;100.00;102453.50;5120491;27;20386;-84
2022/09/21 00:33:32;;;;;;;8.80;3.97;;;;;;;9.37;100.00;102454.69;5138132;27;20470;-83
2022/09/21 00:36:09;;;;;;;7.22;3.90;;;;;;;9.35;100.00;102464.00;5137414;27;20027;-84
2022/09/21 00:38:35;;;;;;;7.47;3.95;;;;;;;9.34;100.00;102465.00;5156776;27;20031;-84
2022/09/21 00:41:02;;;;;;;5.18;3.90;;;;;;;9.32;100.00;102462.47;5137591;27;20027;-84
2022/09/21 00:43:27;;;;;;;6.23;3.40;;;;;;;9.31;100.00;102458.06;5120428;27;20024;-84
2022/09/21 00:46:02;;;;;;;6.13;3.72;;;;;;;9.29;100.00;102458.22;5137261;27;20039;-84
2022/09/21 00:48:29;;;;;;;9.50;3.70;;;;;;;9.28;100.00;102459.25;5156107;27;20026;-84
2022/09/21 00:51:01;;;;;;;5.88;3.72;;;;;;;9.28;100.00;102455.69;5120553;27;20103;-84
2022/09/21 00:53:27;;;;;;;7.03;3.95;;;;;;;9.27;100.00;102459.41;5137432;27;20022;-84
2022/09/21 00:55:56;;;;;;;7.68;3.75;;;;;;;9.28;100.00;102458.41;5137744;27;20054;-84
2022/09/21 00:58:29;;;;;;;10.48;4.03;;;;;;;9.25;100.00;102459.56;5138021;27;20113;-84
2022/09/21 01:00:57;;;;;;;7.80;4.03;;;;;;;9.27;100.00;102454.84;5137221;27;20031;-84
2022/09/21 01:03:22;;;;;;;8.38;3.80;;;;;;;9.32;100.00;102456.22;5137571;27;20050;-83
2022/09/21 01:05:48;;;;;;;7.20;3.93;;;;;;;9.34;100.00;102457.72;5137193;27;20061;-84
2022/09/21 01:08:14;;;;;;;9.10;4.20;;;;;;;9.34;100.00;102457.72;5119904;27;20292;-84
2022/09/21 01:10:43;;;;;;;7.93;3.92;;;;;;;9.36;100.00;102454.84;5120290;27;20466;-84
2022/09/21 01:13:29;;;;;;;8.70;3.90;;;;;;;9.37;100.00;102465.50;5137142;27;20137;-83
2022/09/21 01:16:06;;;;;;;9.88;3.50;;;;;;;9.38;100.00;102463.66;5137145;27;20023;-83
2022/09/21 01:18:50;;;;;;;5.22;3.35;;;;;;;9.37;100.00;102457.38;5137120;27;20109;-84
2022/09/21 01:21:22;;;;;;;4.70;3.50;;;;;;;9.36;100.00;102457.56;5137084;27;20026;-83
2022/09/21 01:23:56;;;;;;;7.68;3.50;;;;;;;9.36;100.00;102455.72;5136917;27;20030;-84
2022/09/21 01:26:49;;;;;;;8.53;3.50;;;;;;;9.37;100.00;102462.81;5136717;27;20030;-83
2022/09/21 01:29:43;;;;;;;7.93;3.35;;;;;;;9.37;100.00;102464.69;5137497;27;20125;-84
2022/09/21 01:32:24;;;;;;;6.25;3.88;;;;;;;9.40;100.00;102458.91;5155515;27;20049;-84
2022/09/21 01:34:57;;;;;;;7.80;3.42;;;;;;;9.41;100.00;102461.47;5136895;27;20148;-83
2022/09/21 01:37:37;;;;;;;6.55;3.65;;;;;;;9.43;100.00;102459.44;5137445;27;20030;-83
2022/09/21 01:40:10;;;;;;;8.70;3.43;;;;;;;9.45;100.00;102460.13;5136871;27;20060;-83
2022/09/21 01:42:39;;;;;;;7.55;3.88;;;;;;;9.50;100.00;102462.31;5136603;27;20404;-84
2022/09/21 01:45:07;;;;;;;5.45;3.25;;;;;;;9.50;100.00;102456.91;5136396;27;20091;-84
2022/09/21 01:47:37;;;;;;;4.07;3.03;;;;;;;9.51;100.00;102452.31;5136698;27;20037;-84
2022/09/21 01:50:10;;;;;;;4.75;3.35;;;;;;;9.51;100.00;102447.75;5136727;27;20113;-84
2022/09/21 01:52:42;;;;;;;8.90;3.43;;;;;;;9.50;100.00;102446.06;5136759;27;20031;-84
2022/09/21 01:55:17;;;;;;;5.75;3.53;;;;;;;9.52;100.00;102459.44;5155069;27;20092;-84
2022/09/21 01:57:58;;;;;;;7.80;3.40;;;;;;;9.50;100.00;102459.59;5155057;27;20031;-84
2022/09/21 02:00:25;;;;;;;5.88;3.13;;;;;;;9.49;100.00;102457.91;5136723;27;20031;-84
2022/09/21 02:02:54;;;;;;;9.40;3.10;;;;;;;9.46;100.00;102456.41;5119525;27;20134;-84
2022/09/21 02:05:23;;;;;;;6.43;3.10;;;;;;;9.48;100.00;102456.22;5155191;27;20018;-83
2022/09/21 02:07:50;;;;;;;6.80;3.65;;;;;;;9.47;100.00;102451.81;5137460;27;20079;-84
2022/09/21 02:10:32;;;;;;;4.75;3.15;;;;;;;9.47;100.00;102451.81;5136856;27;20069;-83
2022/09/21 02:13:00;;;;;;;8.82;3.50;;;;;;;9.47;100.00;102463.50;5158537;27;20485;-84
2022/09/21 02:16:04;;;;;;;6.32;3.33;;;;;;;9.46;100.00;102460.94;5140214;27;20031;-84
2022/09/21 02:18:41;;;;;;;5.90;3.40;;;;;;;9.42;100.00;102460.47;5135961;27;20039;-83
2022/09/21 02:21:40;;;;;;;8.68;3.78;;;;;;;9.38;100.00;102448.25;5140654;27;20538;-83
2022/09/21 02:24:30;;;;;;;8.80;3.80;;;;;;;9.30;100.00;102457.22;5070020;27;20125;-84
2022/09/21 02:27:05;;;;;;;7.00;3.58;;;;;;;9.21;100.00;102455.53;5140722;27;20163;-84
2022/09/21 02:29:40;;;;;;;10.10;4.03;;;;;;;9.17;100.00;102458.72;5158826;27;20027;-84
2022/09/21 02:32:16;;;;;;;6.67;3.67;;;;;;;9.08;100.00;102449.72;5141092;27;20046;-84
2022/09/21 02:34:51;;;;;;;6.25;3.53;;;;;;;9.03;100.00;102454.81;5159088;27;20025;-84
2022/09/21 02:37:25;;;;;;;6.47;3.80;;;;;;;8.98;100.00;102452.59;5140345;27;20359;-84
2022/09/21 02:40:09;;;;;;;6.82;3.50;;;;;;;8.91;100.00;102455.09;5139725;27;20034;-83
2022/09/21 02:42:41;;;;;;;7.93;3.88;;;;;;;8.88;100.00;102458.16;5140005;27;20030;-83
2022/09/21 02:45:13;;;;;;;7.30;3.57;;;;;;;8.83;100.00;102454.22;5158284;27;20083;-84
2022/09/21 02:47:46;;;;;;;6.20;3.65;;;;;;;8.77;100.00;102450.34;5140096;27;20018;-84
2022/09/21 02:50:19;;;;;;;7.45;4.32;;;;;;;8.71;100.00;102448.28;5140083;27;20038;-84
2022/09/21 02:52:44;;;;;;;5.82;3.47;;;;;;;8.65;100.00;102448.94;5140816;27;20109;-84
2022/09/21 02:55:12;;;;;;;6.37;3.47;;;;;;;8.60;100.00;102449.44;5139930;27;20447;-84
2022/09/21 02:57:37;;;;;;;4.85;3.40;;;;;;;8.58;100.00;102451.47;5139392;27;20027;-83
2022/09/21 03:00:05;;;;;;;9.95;3.50;;;;;;;8.54;100.00;102445.50;5139347;27;20022;-83
2022/09/21 03:02:39;;;;;;;10.82;3.53;;;;;;;8.51;100.00;102442.28;5157918;27;20466;-83
2022/09/21 03:05:05;;;;;;;4.90;3.63;;;;;;;8.49;100.00;102452.41;5139735;27;20035;-84
2022/09/21 03:07:34;;;;;;;6.30;3.60;;;;;;;8.46;100.00;102450.03;5139023;27;20117;-84
2022/09/21 03:09:59;;;;;;;3.72;3.08;;;;;;;8.44;100.00;102452.91;5139248;27;20027;-84
2022/09/21 03:12:25;;;;;;;7.33;3.50;;;;;;;8.43;100.00;102459.31;5140263;27;20094;-84
2022/09/21 03:14:52;;;;;;;5.35;3.15;;;;;;;8.41;100.00;102458.59;5140260;27;20069;-84
2022/09/21 03:17:17;;;;;;;5.38;3.17;;;;;;;8.39;100.00;102458.78;5139045;27;20031;-84
2022/09/21 03:19:43;;;;;;;5.43;3.50;;;;;;;8.36;100.00;102460.97;5122155;27;20058;-84
2022/09/21 03:22:08;;;;;;;11.10;4.00;;;;;;;8.30;100.00;102461.59;5121796;27;20027;-84
2022/09/21 03:24:46;;;;;;;9.38;3.95;;;;;;;8.26;100.00;102452.97;5140042;27;20034;-84
2022/09/21 03:27:13;;;;;;;8.18;4.05;;;;;;;8.25;100.00;102460.22;5139445;27;20023;-84
2022/09/21 03:29:39;;;;;;;13.47;3.73;;;;;;;8.27;100.00;102462.78;5157419;27;20478;-84
2022/09/21 03:32:05;;;;;;;7.60;3.45;;;;;;;8.25;100.00;102468.34;5122117;27;20113;-83
2022/09/21 03:34:32;;;;;;;7.63;3.83;;;;;;;8.24;100.00;102463.09;5139341;27;20019;-84
2022/09/21 03:36:57;;;;;;;4.60;3.27;;;;;;;8.22;100.00;102465.97;5122165;27;20030;-83
2022/09/21 03:39:23;;;;;;;8.20;3.65;;;;;;;8.19;100.00;102462.72;5104448;27;20035;-84
2022/09/21 03:41:49;;;;;;;7.97;3.47;;;;;;;8.14;100.00;102465.91;5121608;27;20493;-84
2022/09/21 03:44:16;;;;;;;6.15;3.72;;;;;;;8.11;100.00;102470.78;5121808;27;20079;-84
2022/09/21 03:46:42;;;;;;;8.57;4.03;;;;;;;8.10;100.00;102463.69;5138674;27;20058;-84
2022/09/21 03:49:07;;;;;;;6.28;3.97;;;;;;;8.08;100.00;102471.94;5138492;27;20026;-84
2022/09/21 03:51:33;;;;;;;6.93;3.60;;;;;;;8.05;100.00;102472.28;5121526;27;20385;-84
2022/09/21 03:53:58;;;;;;;6.53;3.67;;;;;;;8.04;100.00;102478.69;5104424;27;20023;-83
2022/09/21 03:56:23;;;;;;;7.73;3.90;;;;;;;8.03;100.00;102482.38;5121794;27;20038;-84
2022/09/21 03:58:52;;;;;;;7.10;3.55;;;;;;;8.02;100.00;102472.59;5138823;27;20477;-84
2022/09/21 04:01:17;;;;;;;8.77;3.47;;;;;;;8.01;100.00;102474.44;5138795;27;20035;-84
2022/09/21 04:03:43;;;;;;;5.78;3.47;;;;;;;8.02;100.00;102472.59;5138786;27;20076;-84
2022/09/21 04:06:10;;;;;;;8.10;3.70;;;;;;;8.03;100.00;102477.84;5138295;27;20462;-84
2022/09/21 04:08:36;;;;;;;7.53;4.03;;;;;;;8.05;100.00;102475.81;5156606;27;20033;-84
2022/09/21 04:11:12;;;;;;;5.50;3.85;;;;;;;8.07;100.00;102472.94;5138447;27;20034;-84
2022/09/21 04:13:37;;;;;;;6.67;3.60;;;;;;;8.06;100.00;102469.41;5138751;27;20027;-84
2022/09/21 04:16:04;;;;;;;5.97;4.00;;;;;;;8.08;100.00;102471.94;5138401;27;20419;-84
2022/09/21 04:18:29;;;;;;;10.35;3.78;;;;;;;8.09;100.00;102470.94;5138069;27;20019;-83
2022/09/21 04:20:55;;;;;;;5.83;3.73;;;;;;;8.12;100.00;102476.03;5137894;27;20421;-84
2022/09/21 04:23:21;;;;;;;7.13;3.80;;;;;;;8.10;100.00;102475.34;5120590;27;20082;-84
2022/09/21 04:25:50;;;;;;;6.78;3.78;;;;;;;8.09;100.00;102468.25;5137964;27;20113;-84
2022/09/21 04:28:19;;;;;;;7.65;3.92;;;;;;;8.08;100.00;102477.34;5138109;27;20052;-83
2022/09/21 04:30:45;;;;;;;7.45;3.50;;;;;;;8.07;100.00;102476.53;5138458;27;20043;-83
2022/09/21 04:33:11;;;;;;;7.37;3.90;;;;;;;8.02;100.00;102476.13;5137474;27;20034;-84
2022/09/21 04:35:37;;;;;;;5.27;3.57;;;;;;;7.99;100.00;102481.84;5137528;27;20034;-83
2022/09/21 04:38:03;;;;;;;5.95;4.10;;;;;;;7.96;100.00;102487.59;5138032;27;20463;-84
2022/09/21 04:40:28;;;;;;;7.17;3.40;;;;;;;7.92;100.00;102480.78;5120266;27;20133;-83
2022/09/21 04:42:54;;;;;;;9.23;4.03;;;;;;;7.93;100.00;102496.00;5138514;27;20035;-83
2022/09/21 04:45:21;;;;;;;6.90;3.70;;;;;;;7.86;100.00;102481.44;5137420;27;20069;-84
2022/09/21 04:47:47;;;;;;;6.13;3.80;;;;;;;7.82;100.00;102480.88;5138261;27;20034;-83
2022/09/21 04:50:13;;;;;;;7.00;3.72;;;;;;;7.83;100.00;102481.75;5138244;27;20031;-84
2022/09/21 04:52:38;;;;;;;6.03;3.63;;;;;;;7.87;100.00;102485.84;5137379;27;20389;-84
2022/09/21 04:55:05;;;;;;;11.40;4.22;;;;;;;7.84;100.00;102480.72;5120287;27;20039;-84
2022/09/21 04:57:31;;;;;;;7.07;3.70;;;;;;;7.88;100.00;102482.09;5137286;27;20023;-84
2022/09/21 04:59:56;;;;;;;12.93;4.17;;;;;;;7.86;100.00;102484.97;5155866;27;20033;-83
2022/09/21 05:02:22;;;;;;;7.23;3.57;;;;;;;7.87;100.00;102493.94;5136947;27;20113;-84
2022/09/21 05:04:48;;;;;;;6.50;3.15;;;;;;;7.86;100.00;102484.13;5137060;27;20114;-83
2022/09/21 05:07:14;;;;;;;7.18;3.70;;;;;;;7.85;100.00;102480.59;5155281;27;20370;-85
2022/09/21 05:12:23;;;;;;;6.82;3.80;;;;;;;7.84;100.00;102494.22;5140039;27;20498;-83
2022/09/21 05:14:49;;;;;;;7.27;3.63;;;;;;;7.84;100.00;102486.13;5137338;27;20023;-85
2022/09/21 05:17:14;;;;;;;8.80;3.50;;;;;;;7.84;100.00;102494.22;5137064;27;20015;-86
2022/09/21 05:19:40;;;;;;;9.25;3.95;;;;;;;7.84;100.00;102492.41;5155325;27;20023;-86
2022/09/21 05:22:05;;;;;;;8.70;3.80;;;;;;;7.88;100.00;102490.22;5119564;27;20038;-86
2022/09/21 05:24:31;;;;;;;5.47;3.47;;;;;;;7.90;100.00;102493.63;5155521;27;20031;-86
2022/09/21 05:26:56;;;;;;;4.40;3.33;;;;;;;7.92;100.00;102497.00;5119820;27;20033;-84
2022/09/21 05:29:22;;;;;;;6.57;3.77;;;;;;;7.93;100.00;102496.00;5119642;27;20515;-84
2022/09/21 05:31:53;;;;;;;6.30;3.47;;;;;;;7.96;100.00;102502.94;5136870;27;20077;-84
2022/09/21 05:34:35;;;;;;;4.68;3.60;;;;;;;7.97;100.00;102505.50;5137172;27;20037;-85
2022/09/21 05:37:09;;;;;;;6.97;3.67;;;;;;;7.98;100.00;102509.03;5137445;27;20022;-84
2022/09/21 05:39:35;;;;;;;5.70;4.00;;;;;;;8.00;100.00;102507.03;5137156;27;20378;-83
2022/09/21 05:42:01;;;;;;;5.40;3.90;;;;;;;8.00;100.00;102512.44;5136686;27;20031;-84
2022/09/21 05:44:27;;;;;;;5.88;3.58;;;;;;;8.05;100.00;102518.22;5120273;27;20347;-84
2022/09/21 05:46:58;;;;;;;8.03;3.53;;;;;;;8.08;100.00;102512.50;5119653;27;20043;-84
2022/09/21 05:50:08;;;;;;;6.33;3.70;;;;;;;8.13;100.00;102514.72;5137974;27;20337;-84
2022/09/21 05:52:50;;;;;;;5.40;3.60;;;;;;;8.17;100.00;102522.34;5132827;27;20042;-84
2022/09/21 05:55:40;;;;;;;6.80;3.67;;;;;;;8.22;100.00;102519.19;5137346;27;20035;-84
2022/09/21 05:58:14;;;;;;;7.95;3.40;;;;;;;8.24;100.00;102522.59;5138660;27;20027;-84
2022/09/21 06:00:58;;;;;;;9.15;3.58;;;;;;;8.22;100.00;102522.75;5136945;27;20039;-84
2022/09/21 06:03:29;;;;;;;6.88;3.60;;;;;;;8.18;100.00;102521.38;5136860;27;20028;-84
2022/09/21 06:05:55;;;;;;;6.82;4.10;;;;;;;8.14;100.00;102529.94;5136407;27;20125;-84
2022/09/21 06:08:21;;;;;;;7.43;4.18;;;;;;;8.12;100.00;102521.13;5138156;27;20029;-84
2022/09/21 06:10:47;;;;;;;7.20;3.97;;;;;;;8.13;100.00;102523.69;5119570;27;20471;-84
2022/09/21 06:13:12;;;;;;;8.18;3.90;;;;;;;8.14;100.00;102532.66;5136464;27;20031;-84
2022/09/21 06:15:39;;;;;;;11.88;4.13;;;;;;;8.15;100.00;102527.09;5137117;27;20027;-83
2022/09/21 06:18:05;;;;;;;10.23;4.73;;;;;;;8.19;100.00;102525.78;5119543;27;20031;-83
2022/09/21 06:20:32;;;;;;;11.52;5.47;;;;;;;8.24;100.00;102526.13;5136679;27;20025;-83
2022/09/21 06:23:05;;;;;;;12.27;5.10;;;;;;;8.30;100.00;102532.75;5138007;27;20026;-83
2022/09/21 06:25:31;;;;;;;10.05;5.50;;;;;;;8.33;100.00;102543.25;5136570;27;20034;-84
2022/09/21 06:28:09;;;;;;;9.43;5.60;;;;;;;8.36;100.00;102537.53;5136910;27;20019;-84
2022/09/21 06:30:35;;;;;;;10.20;6.13;;;;;;;8.41;100.00;102537.91;5136613;27;20037;-85
2022/09/21 06:33:03;;;;;;;16.00;7.10;;;;;;;8.43;100.00;102533.19;5138185;27;20080;-85
2022/09/21 06:35:31;;;;;;;10.50;7.00;;;;;;;8.49;100.00;102531.72;5136717;27;20037;-84
2022/09/21 06:38:00;;;;;;;14.38;7.60;;;;;;;8.54;100.00;102537.50;5136065;27;20027;-83
2022/09/21 06:40:28;;;;;;;13.10;7.80;;;;;;;8.60;100.00;102531.44;5119473;27;20096;-83
2022/09/21 06:42:57;;;;;;;11.10;7.88;;;;;;;8.63;100.00;102538.38;5136167;27;20079;-83
2022/09/21 06:45:24;;;;;;;17.38;8.23;;;;;;;8.67;100.00;102531.66;5139014;27;20119;-84
2022/09/21 06:47:50;;;;;;;15.18;8.75;;;;;;;8.72;100.00;102536.56;5158838;27;20026;-84
2022/09/21 06:50:15;;;;;;;16.40;8.40;;;;;;;8.79;100.00;102537.63;5122330;27;20098;-84
2022/09/21 06:52:41;;;;;;;14.27;8.73;;;;;;;8.83;100.00;102536.31;5122193;27;20269;-84
2022/09/21 06:55:08;;;;;;;13.90;8.53;;;;;;;8.90;100.00;102534.66;5139231;27;20031;-84
2022/09/21 06:57:34;;;;;;;22.30;9.13;;;;;;;8.98;100.00;102532.97;5138093;27;20026;-83
2022/09/21 07:00:00;;;;;;;13.17;8.30;;;;;;;9.05;100.00;102537.56;5139360;27;20071;-83
2022/09/21 07:02:25;;;;;;;14.63;8.02;;;;;;;9.12;100.00;102535.91;5139649;27;20038;-84
2022/09/21 07:04:50;;;;;;;13.57;7.87;;;;;;;9.26;100.00;102545.25;5158038;27;20371;-84
2022/09/21 07:07:16;;;;;;;15.33;8.00;;;;;;;9.45;100.00;102543.25;5122435;27;20466;-84
2022/09/21 07:09:41;;;;;;;14.27;7.50;;;;;;;9.63;100.00;102543.13;5157596;27;20494;-83
2022/09/21 07:12:07;;;;;;;14.85;7.07;;;;;;;9.80;100.00;102541.25;5122563;27;20493;-84
2022/09/21 07:14:32;;;;;;;12.10;6.97;;;;;;;9.99;100.00;102546.38;5140139;27;20023;-84
2022/09/21 07:16:58;;;;;;;12.80;6.53;;;;;;;10.13;100.00;102539.38;5139258;27;20466;-83
2022/09/21 07:19:24;;;;;;;11.65;6.30;;;;;;;10.25;100.00;102537.16;5122002;27;20066;-84
2022/09/21 07:21:53;;;;;;;9.37;5.87;;;;;;;10.35;100.00;102535.16;5138693;27;20030;-84
2022/09/21 07:24:18;;;;;;;11.63;6.40;;;;;;;10.43;100.00;102541.59;5139143;27;20494;-83
2022/09/21 07:26:44;;;;;;;13.20;6.93;;;;;;;10.50;100.00;102542.59;5121511;27;20072;-84
2022/09/21 07:29:09;;;;;;;10.03;6.50;;;;;;;10.55;100.00;102534.75;5121932;27;20033;-83
2022/09/21 07:31:35;;;;;;;10.48;6.22;;;;;;;10.62;100.00;102534.91;5139741;27;20041;-83
2022/09/21 07:34:00;;;;;;;14.50;6.60;;;;;;;10.65;100.00;102535.41;5138883;27;20389;-84
2022/09/21 07:36:26;;;;;;;10.17;6.13;;;;;;;10.68;100.00;102536.94;5138516;27;20038;-84
2022/09/21 07:38:57;;;;;;;12.17;6.00;;;;;;;10.67;100.00;102544.25;5121305;27;20481;-85
2022/09/21 07:41:23;;;;;;;13.90;6.30;;;;;;;10.70;100.00;102543.03;5138373;27;20105;-86
2022/09/21 07:43:48;;;;;;;13.10;5.97;;;;;;;10.70;99.75;102533.03;5138358;27;20027;-86
2022/09/21 07:46:14;;;;;;;8.85;5.30;;;;;;;10.73;99.59;102526.38;5138449;27;20099;-85
2022/09/21 07:48:40;;;;;;;13.57;5.40;;;;;;;10.79;99.42;102527.56;5121518;27;20031;-86
2022/09/21 07:51:13;;;;;;;18.90;9.80;;;;;;;10.80;99.33;102527.38;5138140;27;20039;-85
2022/09/21 07:53:44;;;;;;;20.20;8.60;;;;;;;10.83;99.07;102526.19;5138633;27;20485;-87
2022/09/21 07:56:16;;;;;;;15.30;6.00;;;;;;;10.88;98.49;102526.53;5138455;27;20023;-86
2022/09/21 08:01:27;;;;;;;10.73;5.13;;;;;;;11.00;97.21;102526.97;5157338;27;20054;-85
2022/09/21 08:03:57;;;;;;;10.43;4.95;;;;;;;11.05;96.93;102535.41;5138170;27;20057;-87
2022/09/21 08:06:24;;;;;;;7.17;4.50;;;;;;;11.09;96.70;102535.91;5137688;27;20067;-85
2022/09/21 08:08:50;;;;;;;10.60;4.47;;;;;;;11.15;95.50;102535.22;5156319;27;20050;-86
2022/09/21 08:11:24;;;;;;;11.35;4.40;;;;;;;11.19;94.69;102525.66;5138121;27;20058;-85
2022/09/21 08:14:19;;;;;;;9.82;3.88;;;;;;;11.27;94.38;102522.91;5138344;27;20050;-87
2022/09/21 08:16:48;;;;;;;7.20;3.10;;;;;;;11.32;93.28;102525.09;5135648;27;20031;-85
2022/09/21 08:19:14;;;;;;;5.68;2.78;;;;;;;11.36;92.99;102524.53;5138007;27;20454;-85
2022/09/21 08:21:50;;;;;;;9.20;3.00;;;;;;;11.43;92.34;102526.53;5157074;27;20030;-86
2022/09/21 08:24:16;;;;;;;7.38;2.65;;;;;;;11.44;91.74;102526.38;5138695;27;20035;-85
2022/09/21 08:26:42;;;;;;;10.53;2.97;;;;;;;11.50;91.42;102525.66;5137534;27;20030;-85
2022/09/21 08:29:07;;;;;;;7.35;2.83;;;;;;;11.57;91.01;102523.03;5138458;27;20466;-85
2022/09/21 08:31:33;;;;;;;9.47;2.50;;;;;;;11.65;89.63;102524.84;5137697;27;20038;-84
2022/09/21 08:33:59;;;;;;;5.73;2.33;;;;;;;11.71;89.32;102526.88;5137926;27;20027;-84
2022/09/21 08:36:25;;;;;;;7.57;2.42;;;;;;;11.79;87.92;102531.38;5137748;27;20022;-85
2022/09/21 08:38:55;;;;;;;6.82;1.95;;;;;;;11.88;87.34;102535.72;5137218;27;20522;-86
2022/09/21 08:41:24;;;;;;;7.07;1.97;;;;;;;11.97;86.05;102536.53;5138389;27;20367;-86
2022/09/21 08:44:02;;;;;;;6.13;2.30;;;;;;;11.99;86.07;102532.59;5137477;27;20030;-86
2022/09/21 08:46:32;;;;;;;10.70;2.42;;;;;;;12.05;85.13;102531.03;5137205;27;20504;-86
2022/09/21 08:49:09;;;;;;;7.95;1.73;;;;;;;12.10;84.11;102537.59;5137385;27;20027;-85
2022/09/21 08:51:49;;;;;;;9.13;1.63;;;;;;;12.18;84.28;102527.66;5137753;27;20037;-86
2022/09/21 08:54:26;;;;;;;7.23;1.90;;;;;;;12.25;84.08;102539.50;5138002;27;20034;-86
2022/09/21 08:56:55;;;;;;;7.13;1.85;;;;;;;12.34;82.88;102535.69;5137551;27;20030;-86
2022/09/21 08:59:20;;;;;;;5.68;0.98;;;;;;;12.41;81.64;102538.50;5119864;27;20034;-85
2022/09/21 09:02:25;;;;;;;3.43;1.20;;;;;;;12.48;83.03;102541.31;5137884;27;20041;-85
2022/09/21 09:05:36;;;;;;;5.28;1.08;;;;;;;12.56;82.01;102533.03;5137159;27;20110;-85
2022/09/21 09:08:14;;;;;;;5.03;1.00;;;;;;;12.63;80.46;102536.72;5137312;27;20026;-85
2022/09/21 09:11:00;;;;;;;7.78;1.50;;;;;;;12.69;80.57;102538.69;5137347;27;20075;-85
2022/09/21 09:13:54;;;;;;;7.30;1.60;;;;;;;12.75;80.88;102534.38;5136996;27;20363;-86
2022/09/21 09:16:48;;;;;;;4.67;1.03;;;;;;;12.84;79.59;102548.72;5137942;27;20081;-85
2022/09/21 09:19:38;;;;;;;4.95;1.20;;;;;;;12.90;77.99;102543.38;5136980;27;20031;-85
2022/09/21 09:22:11;;;;;;;4.68;1.02;;;;;;;12.99;77.58;102544.09;5137582;27;20027;-86
2022/09/21 09:24:51;;;;;;;4.57;1.13;;;;;;;13.07;76.83;102543.16;5138051;27;20043;-86
2022/09/21 09:27:47;;;;;;;4.28;1.17;;;;;;;13.19;75.65;102544.34;5137549;27;20118;-86
2022/09/21 09:30:24;;;;;;;4.70;1.10;;;;;;;13.32;75.12;102547.22;5136243;27;20038;-87
2022/09/21 09:33:11;;;;;;;9.30;1.00;;;;;;;13.44;75.75;102544.88;5136985;27;20031;-85
2022/09/21 09:35:54;;;;;;;5.65;0.90;;;;;;;13.61;75.50;102547.34;5136928;27;20019;-85
2022/09/21 09:38:51;;;;;;;8.48;1.00;;;;;;;13.85;74.76;102546.97;5136702;27;20023;-85
2022/09/21 09:41:50;;;;;;;5.53;0.95;;;;;;;14.15;71.46;102544.06;5130307;27;20070;-85
2022/09/21 09:44:24;;;;;;;3.33;0.90;;;;;;;14.45;69.11;102546.59;5136605;27;20078;-85
2022/09/21 09:47:10;;;;;;;5.18;1.08;;;;;;;14.69;68.89;102544.44;5136475;27;20049;-85
2022/09/21 09:49:55;;;;;;;3.78;0.98;;;;;;;15.02;67.26;102541.06;5136861;27;20458;-83
2022/09/21 09:52:27;;;;;;;10.82;1.27;;;;;;;15.49;65.18;102541.22;5136832;27;20029;-83
2022/09/21 09:54:53;;;;;;;2.35;1.00;;;;;;;15.87;61.83;102535.16;5137343;27;20035;-83
2022/09/21 09:57:29;;;;;;;4.13;0.90;;;;;;;16.24;61.44;102536.44;5136551;27;20025;-83
2022/09/21 10:00:02;;;;;;;9.15;1.10;;;;;;;16.57;58.00;102532.78;5155232;27;20056;-82
2022/09/21 10:02:28;;;;;;;3.25;0.90;;;;;;;17.15;57.60;102545.66;5136414;27;20113;-83
2022/09/21 10:05:04;;;;;;;2.25;0.80;;;;;;;17.78;58.69;102537.72;5119544;27;20046;-82
2022/09/21 10:07:42;;;;;;;3.17;0.87;;;;;;;18.26;56.35;102541.75;5155019;27;20027;-83
2022/09/21 10:10:31;;;;;;;1.48;0.70;;;;;;;18.65;56.30;102542.44;5136045;27;20038;-83
2022/09/21 10:13:22;;;;;;;6.25;1.20;;;;;;;18.96;55.50;102538.72;5137040;27;20037;-83
2022/09/21 10:16:01;;;;;;;3.65;0.85;;;;;;;19.21;51.61;102532.25;5136727;27;20382;-83
2022/09/21 10:18:50;;;;;;;6.32;1.27;;;;;;;19.40;52.94;102528.38;5136604;27;20042;-83
2022/09/21 10:21:25;;;;;;;3.30;0.70;;;;;;;19.45;47.28;102535.94;5136327;27;20537;-83
2022/09/21 10:23:58;;;;;;;6.80;0.88;;;;;;;19.55;47.29;102532.63;5136554;27;20031;-84
2022/09/21 10:26:40;;;;;;;3.45;1.20;;;;;;;19.74;47.58;102531.47;5136593;27;20462;-83
2022/09/21 10:29:24;;;;;;;2.88;0.68;;;;;;;19.93;48.96;102526.75;5136067;27;20034;-83
2022/09/21 10:32:12;;;;;;;6.03;1.35;;;;;;;20.13;50.66;102526.38;5136724;27;20041;-83
2022/09/21 10:34:40;;;;;;;4.57;1.30;;;;;;;20.27;45.99;102524.22;5128891;27;20035;-84
2022/09/21 10:37:24;;;;;;;4.35;1.30;;;;;;;20.47;48.87;102517.50;5139903;27;20023;-84
2022/09/21 10:39:50;;;;;;;2.20;0.90;;;;;;;20.66;43.10;102518.22;5158481;27;20025;-84
2022/09/21 10:42:18;;;;;;;2.87;0.90;;;;;;;20.81;43.93;102524.06;5139582;27;20031;-84
2022/09/21 10:44:49;;;;;;;5.60;1.40;;;;;;;20.73;44.72;102518.94;5139925;27;20034;-84
2022/09/21 10:47:32;;;;;;;5.88;1.83;;;;;;;20.59;46.68;102511.97;5140063;27;20043;-83
2022/09/21 10:50:00;;;;;;;5.03;1.60;;;;;;;20.72;45.21;102511.72;5139560;27;20075;-84
2022/09/21 10:52:40;;;;;;;4.30;1.58;;;;;;;20.91;46.64;102506.06;5139546;27;20054;-84
2022/09/21 10:55:14;;;;;;;6.20;1.40;;;;;;;20.89;45.02;102502.69;5140648;27;20030;-83
2022/09/21 10:57:41;;;;;;;5.88;1.50;;;;;;;20.76;44.24;102501.88;5140800;27;20027;-83
2022/09/21 11:00:25;;;;;;;4.28;1.27;;;;;;;20.82;46.09;102505.59;5139375;27;20082;-83
2022/09/21 11:02:53;;;;;;;3.60;1.40;;;;;;;21.26;44.57;102507.81;5139747;27;20122;-84
2022/09/21 11:05:33;;;;;;;3.28;1.20;;;;;;;21.82;43.75;102510.75;5139468;27;20070;-83
2022/09/21 11:08:34;;;;;;;9.73;1.50;;;;;;;22.70;43.76;102502.66;5139108;27;20027;-84
2022/09/21 11:11:20;;;;;;;4.53;1.20;;;;;;;22.52;42.44;102512.13;5139357;27;20121;-84
2022/09/21 11:13:55;;;;;;;3.30;1.20;;;;;;;23.67;38.83;102506.75;5139615;27;20355;-83
2022/09/21 11:16:31;;;;;;;7.00;1.40;;;;;;;23.27;38.19;102506.13;5139028;27;20089;-84
2022/09/21 11:19:05;;;;;;;2.65;1.20;;;;;;;23.52;39.56;102499.97;5138811;27;20023;-83
2022/09/21 11:21:56;;;;;;;3.00;1.37;;;;;;;26.31;36.24;102504.56;5139077;27;20054;-84
2022/09/21 11:24:31;;;;;;;4.15;1.20;;;;;;;26.64;31.39;102505.03;5139372;27;20023;-84
2022/09/21 11:27:23;;;;;;;3.65;1.48;;;;;;;28.61;31.59;102495.66;5157227;27;20031;-83
2022/09/21 11:30:02;;;;;;;2.90;1.30;;;;;;;30.91;27.97;102493.91;5157444;27;20034;-84
2022/09/21 11:32:36;;;;;;;4.93;1.60;;;;;;;32.77;23.70;102495.53;5157637;27;20483;-84
2022/09/21 11:35:41;;;;;;;6.50;1.50;;;;;;;30.82;28.48;102495.81;5157254;27;20395;-85
2022/09/21 11:38:06;;;;;;;5.97;1.92;;;;;;;28.43;27.35;102486.06;5138219;27;20034;-85
2022/09/21 11:41:06;;;;;;;5.10;1.23;;;;;;;27.20;32.38;102495.56;5138564;27;20027;-84
2022/09/21 11:43:40;;;;;;;3.27;1.30;;;;;;;25.54;32.18;102483.22;5138482;27;20276;-85
2022/09/21 11:46:24;;;;;;;3.60;1.40;;;;;;;24.80;34.08;102479.72;5137924;27;20061;-84
2022/09/21 11:49:12;;;;;;;4.50;1.48;;;;;;;24.24;35.61;102475.59;5138781;27;20026;-85
2022/09/21 11:52:12;;;;;;;4.18;1.42;;;;;;;23.91;36.14;102477.59;5138703;27;20076;-85
2022/09/21 11:55:01;;;;;;;4.32;1.50;;;;;;;23.43;34.20;102473.84;5138463;27;20070;-84